Date,TemperatureHighF,TemperatureAvgF,TemperatureLowF,DewpointHighF,DewpointAvgF,DewpointLowF,HumidityHigh,HumidityAvg,HumidityLow,PressureMaxIn,PressureMinIn,WindSpeedMaxMPH,WindSpeedAvgMPH,GustSpeedMaxMPH,PrecipitationSumIn
2013-2-20,54.5,47.1,40.5,47.4,39.2,22.8,99,76,36,30.16,29.99,10,6,10,0.00
2013-2-21,53.6,45.3,34.7,42.2,39.2,31.5,88,79,65,30.08,30.00,7,4,7,0.00
2013-2-22,45.9,37.4,25.7,42.0,34.2,24.0,100,89,71,30.13,29.97,7,3,7,0.00
2013-2-23,43.2,38.7,28.3,42.4,29.1,4.7,100,73,33,30.26,29.98,17,8,17,0.00
2013-2-24,27.4,25.8,23.0,5.3,-1.0,-6.6,46,32,22,30.33,30.17,14,10,14,0.00
2013-2-25,55.3,34.8,20.5,18.0,8.2,-4.2,49,33,22,30.27,30.17,10,5,10,0.00
2013-2-26,42.5,32.3,22.9,32.8,24.1,9.7,87,72,38,30.27,29.94,11,5,11,0.14
2013-2-27,24.7,24.2,22.9,20.5,19.7,17.7,84,83,80,30.16,30.07,8,6,8,0.14
2013-2-28,24.7,24.7,24.7,20.5,20.5,20.5,84,84,84,30.16,30.16,7,7,7,0.00
2013-8-5,87.1,85.6,84.2,75.3,74.6,73.8,71,70,68,29.93,29.92,7,6,7,0.00
2013-8-6,94.5,94.5,94.5,75.3,75.3,75.3,54,54,54,29.85,29.85,2,2,2,0.00
2013-8-8,70.9,70.9,70.9,70.3,70.3,70.3,100,100,100,29.97,29.97,4,4,4,0.00
2013-8-9,66.1,66.1,66.1,65.2,65.2,65.2,97,97,97,30.15,30.15,2,2,2,0.00
2013-8-10,92.2,76.0,62.1,69.8,65.8,61.2,99,74,46,30.22,30.10,4,1,4,0.00
2013-8-11,83.2,68.7,65.7,70.7,66.8,65.4,100,94,66,30.17,30.05,4,1,4,0.00
2013-10-24,61.9,48.3,38.9,44.4,37.4,32.9,95,69,35,30.22,29.96,11,4,11,0.00
2013-10-25,59.8,48.6,36.2,41.7,33.2,24.3,79,58,29,30.25,29.99,14,8,14,0.00
2013-10-26,58.0,54.2,52.4,53.8,52.3,51.6,97,94,86,29.98,29.95,4,2,4,0.05
2013-10-27,61.7,52.4,38.2,36.2,34.0,31.5,78,51,32,29.94,29.77,7,6,7,0.01
2013-10-28,65.2,59.0,46.3,60.3,55.9,35.5,99,90,65,29.89,29.78,16,9,16,0.00
2013-10-29,71.6,62.5,56.3,68.5,61.2,55.8,100,96,88,29.81,29.75,14,4,14,0.58
2013-10-30,76.9,60.1,50.0,70.6,59.2,49.8,100,97,77,29.80,29.57,15,7,16,0.06
2013-10-31,65.5,53.4,46.4,50.7,45.4,38.8,100,78,38,29.61,29.45,16,6,17,0.30
2013-11-1,65.0,53.5,45.9,46.1,40.2,37.4,78,62,41,29.96,29.61,14,5,14,0.00
2013-11-2,69.1,50.0,40.0,38.8,33.9,26.1,82,57,26,30.13,29.95,11,4,11,0.00
2013-11-3,63.0,50.6,40.9,42.4,38.1,33.9,79,63,42,29.96,29.65,35,13,35,0.00
2013-11-4,65.7,54.5,47.9,49.0,45.6,41.4,93,73,45,29.88,29.63,23,6,23,0.00
2013-11-5,60.7,53.7,39.2,60.7,52.2,39.0,100,95,82,29.92,29.68,20,8,20,0.43
2013-11-6,59.8,42.7,34.7,39.2,36.4,32.6,100,81,41,30.17,29.92,17,5,17,0.00
2013-11-7,38.3,38.3,38.3,37.0,37.0,37.0,95,95,95,30.17,30.17,2,2,4,0.00